sensor_id;sensor_type;location;lat;lon;timestamp;P1;durP1;ratioP1;P2;durP2;ratioP2
40074;SDS011;26529;51.530;11.754;2022-11-15T00:01:41;11.02;;;3.95;;
40074;SDS011;26529;51.530;11.754;2022-11-15T00:04:26;9.52;;;3.17;;
40074;SDS011;26529;51.530;11.754;2022-11-15T00:07:10;9.98;;;3.20;;
40074;SDS011;26529;51.530;11.754;2022-11-15T00:09:54;6.35;;;3.10;;
40074;SDS011;26529;51.530;11.754;2022-11-15T00:12:38;9.32;;;3.17;;
40074;SDS011;26529;51.530;11.754;2022-11-15T00:15:22;8.55;;;3.20;;
40074;SDS011;26529;51.530;11.754;2022-11-15T00:18:11;10.13;;;3.05;;
40074;SDS011;26529;51.530;11.754;2022-11-15T00:21:02;9.23;;;3.10;;
40074;SDS011;26529;51.530;11.754;2022-11-15T00:23:50;6.57;;;2.80;;
40074;SDS011;26529;51.530;11.754;2022-11-15T00:26:34;7.95;;;2.80;;
40074;SDS011;26529;51.530;11.754;2022-11-15T00:29:19;10.73;;;3.10;;
40074;SDS011;26529;51.530;11.754;2022-11-15T00:32:03;5.82;;;2.60;;
40074;SDS011;26529;51.530;11.754;2022-11-15T00:34:47;12.27;;;3.38;;
40074;SDS011;26529;51.530;11.754;2022-11-15T00:37:31;6.10;;;3.22;;
40074;SDS011;26529;51.530;11.754;2022-11-15T00:40:15;6.38;;;2.65;;
40074;SDS011;26529;51.530;11.754;2022-11-15T00:42:59;5.07;;;3.08;;
40074;SDS011;26529;51.530;11.754;2022-11-15T00:45:43;4.88;;;2.80;;
40074;SDS011;26529;51.530;11.754;2022-11-15T00:48:27;7.03;;;2.70;;
40074;SDS011;26529;51.530;11.754;2022-11-15T00:51:11;10.55;;;3.42;;
40074;SDS011;26529;51.530;11.754;2022-11-15T00:53:55;7.20;;;2.95;;
40074;SDS011;26529;51.530;11.754;2022-11-15T00:56:40;7.10;;;2.88;;
40074;SDS011;26529;51.530;11.754;2022-11-15T00:59:24;7.63;;;2.90;;
40074;SDS011;26529;51.530;11.754;2022-11-15T01:02:09;5.38;;;3.13;;
40074;SDS011;26529;51.530;11.754;2022-11-15T01:04:53;7.05;;;2.97;;
40074;SDS011;26529;51.530;11.754;2022-11-15T01:07:37;6.95;;;2.85;;
40074;SDS011;26529;51.530;11.754;2022-11-15T01:10:22;8.60;;;2.60;;
40074;SDS011;26529;51.530;11.754;2022-11-15T01:13:07;6.90;;;2.75;;
40074;SDS011;26529;51.530;11.754;2022-11-15T01:15:51;6.95;;;2.88;;
40074;SDS011;26529;51.530;11.754;2022-11-15T01:18:35;4.30;;;2.20;;
40074;SDS011;26529;51.530;11.754;2022-11-15T01:21:20;3.78;;;2.53;;
40074;SDS011;26529;51.530;11.754;2022-11-15T01:24:05;5.38;;;2.45;;
40074;SDS011;26529;51.530;11.754;2022-11-15T01:26:49;5.90;;;2.80;;
40074;SDS011;26529;51.530;11.754;2022-11-15T01:29:33;8.05;;;3.38;;
40074;SDS011;26529;51.530;11.754;2022-11-15T01:32:18;5.85;;;3.00;;
40074;SDS011;26529;51.530;11.754;2022-11-15T01:35:02;6.88;;;2.53;;
40074;SDS011;26529;51.530;11.754;2022-11-15T01:37:47;4.40;;;2.47;;
40074;SDS011;26529;51.530;11.754;2022-11-15T01:40:30;7.55;;;2.85;;
40074;SDS011;26529;51.530;11.754;2022-11-15T01:43:25;4.63;;;2.50;;
40074;SDS011;26529;51.530;11.754;2022-11-15T01:46:23;5.60;;;2.72;;
40074;SDS011;26529;51.530;11.754;2022-11-15T01:49:14;5.95;;;2.53;;
40074;SDS011;26529;51.530;11.754;2022-11-15T01:52:03;4.43;;;2.38;;
40074;SDS011;26529;51.530;11.754;2022-11-15T01:54:50;3.67;;;2.45;;
40074;SDS011;26529;51.530;11.754;2022-11-15T01:57:40;5.38;;;2.75;;
40074;SDS011;26529;51.530;11.754;2022-11-15T02:00:29;8.10;;;3.03;;
40074;SDS011;26529;51.530;11.754;2022-11-15T02:03:14;5.05;;;2.30;;
40074;SDS011;26529;51.530;11.754;2022-11-15T02:05:59;4.80;;;2.53;;
40074;SDS011;26529;51.530;11.754;2022-11-15T02:08:44;3.97;;;2.30;;
40074;SDS011;26529;51.530;11.754;2022-11-15T02:11:28;6.43;;;2.67;;
40074;SDS011;26529;51.530;11.754;2022-11-15T02:14:13;3.10;;;2.08;;
40074;SDS011;26529;51.530;11.754;2022-11-15T02:23:21;5.07;;;2.58;;
40074;SDS011;26529;51.530;11.754;2022-11-15T02:29:42;4.85;;;2.70;;
40074;SDS011;26529;51.530;11.754;2022-11-15T02:36:04;10.05;;;2.80;;
40074;SDS011;26529;51.530;11.754;2022-11-15T02:38:54;5.57;;;2.50;;
40074;SDS011;26529;51.530;11.754;2022-11-15T02:44:45;4.50;;;2.65;;
40074;SDS011;26529;51.530;11.754;2022-11-15T02:47:30;3.97;;;2.63;;
40074;SDS011;26529;51.530;11.754;2022-11-15T02:50:18;3.58;;;2.45;;
40074;SDS011;26529;51.530;11.754;2022-11-15T02:53:07;3.58;;;2.03;;
40074;SDS011;26529;51.530;11.754;2022-11-15T02:55:53;4.47;;;2.50;;
40074;SDS011;26529;51.530;11.754;2022-11-15T03:17:05;5.80;;;2.28;;
40074;SDS011;26529;51.530;11.754;2022-11-15T03:19:59;5.43;;;2.83;;
40074;SDS011;26529;51.530;11.754;2022-11-15T03:22:46;3.22;;;2.38;;
40074;SDS011;26529;51.530;11.754;2022-11-15T03:25:33;4.00;;;2.40;;
40074;SDS011;26529;51.530;11.754;2022-11-15T03:28:23;6.20;;;2.60;;
40074;SDS011;26529;51.530;11.754;2022-11-15T03:31:12;2.20;;;1.90;;
40074;SDS011;26529;51.530;11.754;2022-11-15T03:37:10;4.10;;;2.00;;
40074;SDS011;26529;51.530;11.754;2022-11-15T03:39:58;4.32;;;2.28;;
40074;SDS011;26529;51.530;11.754;2022-11-15T03:42:44;3.72;;;2.10;;
40074;SDS011;26529;51.530;11.754;2022-11-15T03:45:34;3.78;;;1.98;;
40074;SDS011;26529;51.530;11.754;2022-11-15T03:48:24;4.53;;;2.95;;
40074;SDS011;26529;51.530;11.754;2022-11-15T03:51:13;3.63;;;2.20;;
40074;SDS011;26529;51.530;11.754;2022-11-15T03:53:58;2.55;;;1.98;;
40074;SDS011;26529;51.530;11.754;2022-11-15T03:56:43;3.65;;;2.10;;
40074;SDS011;26529;51.530;11.754;2022-11-15T03:59:27;3.13;;;2.42;;
40074;SDS011;26529;51.530;11.754;2022-11-15T04:02:11;5.30;;;2.55;;
40074;SDS011;26529;51.530;11.754;2022-11-15T04:04:57;2.80;;;2.47;;
40074;SDS011;26529;51.530;11.754;2022-11-15T04:07:41;3.75;;;2.55;;
40074;SDS011;26529;51.530;11.754;2022-11-15T04:10:25;3.75;;;2.10;;
40074;SDS011;26529;51.530;11.754;2022-11-15T04:13:10;7.30;;;2.28;;
40074;SDS011;26529;51.530;11.754;2022-11-15T04:15:54;3.72;;;2.42;;
40074;SDS011;26529;51.530;11.754;2022-11-15T04:18:38;4.40;;;2.47;;
40074;SDS011;26529;51.530;11.754;2022-11-15T04:21:23;2.90;;;2.15;;
40074;SDS011;26529;51.530;11.754;2022-11-15T04:24:26;4.05;;;2.30;;
40074;SDS011;26529;51.530;11.754;2022-11-15T04:27:09;4.07;;;2.47;;
40074;SDS011;26529;51.530;11.754;2022-11-15T04:29:56;5.22;;;2.38;;
40074;SDS011;26529;51.530;11.754;2022-11-15T04:32:40;2.92;;;2.10;;
40074;SDS011;26529;51.530;11.754;2022-11-15T04:35:24;3.13;;;1.92;;
40074;SDS011;26529;51.530;11.754;2022-11-15T04:38:09;3.75;;;2.22;;
40074;SDS011;26529;51.530;11.754;2022-11-15T04:40:54;5.43;;;2.45;;
40074;SDS011;26529;51.530;11.754;2022-11-15T04:43:38;3.33;;;2.15;;
40074;SDS011;26529;51.530;11.754;2022-11-15T04:46:22;4.25;;;2.30;;
40074;SDS011;26529;51.530;11.754;2022-11-15T04:49:07;2.90;;;2.15;;
40074;SDS011;26529;51.530;11.754;2022-11-15T04:51:51;3.15;;;2.35;;
40074;SDS011;26529;51.530;11.754;2022-11-15T04:54:36;3.90;;;2.17;;
40074;SDS011;26529;51.530;11.754;2022-11-15T04:57:19;3.90;;;2.05;;
40074;SDS011;26529;51.530;11.754;2022-11-15T05:00:04;2.13;;;1.70;;
40074;SDS011;26529;51.530;11.754;2022-11-15T05:02:52;6.40;;;2.42;;
40074;SDS011;26529;51.530;11.754;2022-11-15T05:05:55;3.65;;;1.95;;
40074;SDS011;26529;51.530;11.754;2022-11-15T05:08:44;3.88;;;2.13;;
40074;SDS011;26529;51.530;11.754;2022-11-15T05:11:28;2.67;;;2.10;;
40074;SDS011;26529;51.530;11.754;2022-11-15T05:14:13;2.90;;;1.80;;
40074;SDS011;26529;51.530;11.754;2022-11-15T05:17:00;3.47;;;2.50;;
40074;SDS011;26529;51.530;11.754;2022-11-15T05:19:44;4.38;;;2.50;;
40074;SDS011;26529;51.530;11.754;2022-11-15T05:22:29;3.95;;;1.98;;
40074;SDS011;26529;51.530;11.754;2022-11-15T05:25:14;2.60;;;1.88;;
40074;SDS011;26529;51.530;11.754;2022-11-15T05:27:58;4.80;;;1.88;;
40074;SDS011;26529;51.530;11.754;2022-11-15T05:30:42;3.65;;;1.70;;
40074;SDS011;26529;51.530;11.754;2022-11-15T05:33:26;3.17;;;2.13;;
40074;SDS011;26529;51.530;11.754;2022-11-15T05:36:15;2.30;;;2.10;;
40074;SDS011;26529;51.530;11.754;2022-11-15T05:39:19;4.82;;;2.03;;
40074;SDS011;26529;51.530;11.754;2022-11-15T05:42:14;3.58;;;1.98;;
40074;SDS011;26529;51.530;11.754;2022-11-15T05:45:01;2.42;;;1.85;;
40074;SDS011;26529;51.530;11.754;2022-11-15T05:47:48;2.33;;;1.55;;
40074;SDS011;26529;51.530;11.754;2022-11-15T05:50:33;3.33;;;2.28;;
40074;SDS011;26529;51.530;11.754;2022-11-15T05:53:23;4.43;;;2.17;;
40074;SDS011;26529;51.530;11.754;2022-11-15T05:56:10;2.38;;;1.92;;
40074;SDS011;26529;51.530;11.754;2022-11-15T05:58:56;3.70;;;2.15;;
40074;SDS011;26529;51.530;11.754;2022-11-15T06:01:42;3.15;;;2.28;;
40074;SDS011;26529;51.530;11.754;2022-11-15T06:04:26;4.25;;;2.22;;
40074;SDS011;26529;51.530;11.754;2022-11-15T06:07:12;3.63;;;2.03;;
40074;SDS011;26529;51.530;11.754;2022-11-15T06:09:56;3.85;;;2.00;;
40074;SDS011;26529;51.530;11.754;2022-11-15T06:12:41;3.50;;;2.30;;
40074;SDS011;26529;51.530;11.754;2022-11-15T06:15:26;3.00;;;1.95;;
40074;SDS011;26529;51.530;11.754;2022-11-15T06:18:10;3.92;;;2.15;;
40074;SDS011;26529;51.530;11.754;2022-11-15T06:20:58;3.30;;;2.28;;
40074;SDS011;26529;51.530;11.754;2022-11-15T06:23:43;5.35;;;1.85;;
40074;SDS011;26529;51.530;11.754;2022-11-15T06:26:28;3.63;;;2.28;;
40074;SDS011;26529;51.530;11.754;2022-11-15T06:29:12;3.17;;;2.00;;
40074;SDS011;26529;51.530;11.754;2022-11-15T06:31:56;4.18;;;2.20;;
40074;SDS011;26529;51.530;11.754;2022-11-15T06:34:40;3.65;;;2.28;;
40074;SDS011;26529;51.530;11.754;2022-11-15T06:37:24;6.70;;;2.13;;
40074;SDS011;26529;51.530;11.754;2022-11-15T06:40:09;2.80;;;1.67;;
40074;SDS011;26529;51.530;11.754;2022-11-15T06:45:44;3.72;;;2.03;;
40074;SDS011;26529;51.530;11.754;2022-11-15T06:48:29;8.23;;;3.25;;
40074;SDS011;26529;51.530;11.754;2022-11-15T06:51:14;6.75;;;2.15;;
40074;SDS011;26529;51.530;11.754;2022-11-15T06:53:58;3.47;;;2.58;;
40074;SDS011;26529;51.530;11.754;2022-11-15T06:56:43;6.65;;;2.20;;
40074;SDS011;26529;51.530;11.754;2022-11-15T06:59:27;7.50;;;2.22;;
40074;SDS011;26529;51.530;11.754;2022-11-15T07:02:11;9.63;;;2.50;;
40074;SDS011;26529;51.530;11.754;2022-11-15T07:07:41;4.63;;;2.35;;
40074;SDS011;26529;51.530;11.754;2022-11-15T07:10:25;6.05;;;1.80;;
40074;SDS011;26529;51.530;11.754;2022-11-15T07:13:10;3.45;;;2.13;;
40074;SDS011;26529;51.530;11.754;2022-11-15T07:15:54;10.30;;;2.38;;
40074;SDS011;26529;51.530;11.754;2022-11-15T07:18:39;5.57;;;2.80;;
40074;SDS011;26529;51.530;11.754;2022-11-15T07:21:23;6.05;;;2.63;;
40074;SDS011;26529;51.530;11.754;2022-11-15T07:24:08;7.38;;;2.63;;
40074;SDS011;26529;51.530;11.754;2022-11-15T07:26:52;7.60;;;2.42;;
40074;SDS011;26529;51.530;11.754;2022-11-15T07:29:36;4.40;;;2.60;;
40074;SDS011;26529;51.530;11.754;2022-11-15T07:32:20;9.18;;;1.90;;
40074;SDS011;26529;51.530;11.754;2022-11-15T07:35:05;4.43;;;1.98;;
40074;SDS011;26529;51.530;11.754;2022-11-15T07:37:52;5.97;;;2.45;;
40074;SDS011;26529;51.530;11.754;2022-11-15T07:40:38;7.93;;;2.85;;
40074;SDS011;26529;51.530;11.754;2022-11-15T07:43:22;6.00;;;2.10;;
40074;SDS011;26529;51.530;11.754;2022-11-15T07:46:07;8.70;;;2.20;;
40074;SDS011;26529;51.530;11.754;2022-11-15T07:48:55;6.85;;;2.53;;
40074;SDS011;26529;51.530;11.754;2022-11-15T07:51:39;8.80;;;2.80;;
40074;SDS011;26529;51.530;11.754;2022-11-15T07:54:23;8.32;;;2.60;;
40074;SDS011;26529;51.530;11.754;2022-11-15T07:57:07;9.57;;;2.83;;
40074;SDS011;26529;51.530;11.754;2022-11-15T07:59:53;6.22;;;2.35;;
40074;SDS011;26529;51.530;11.754;2022-11-15T08:02:37;7.68;;;2.08;;
40074;SDS011;26529;51.530;11.754;2022-11-15T08:05:22;5.70;;;2.65;;
40074;SDS011;26529;51.530;11.754;2022-11-15T08:08:06;9.10;;;3.03;;
40074;SDS011;26529;51.530;11.754;2022-11-15T08:13:36;5.25;;;2.28;;
40074;SDS011;26529;51.530;11.754;2022-11-15T08:16:20;7.13;;;2.90;;
40074;SDS011;26529;51.530;11.754;2022-11-15T08:19:04;5.10;;;2.35;;
40074;SDS011;26529;51.530;11.754;2022-11-15T08:21:48;9.95;;;2.40;;
40074;SDS011;26529;51.530;11.754;2022-11-15T08:24:32;7.05;;;2.75;;
40074;SDS011;26529;51.530;11.754;2022-11-15T08:27:16;3.10;;;2.22;;
40074;SDS011;26529;51.530;11.754;2022-11-15T08:30:00;4.63;;;2.47;;
40074;SDS011;26529;51.530;11.754;2022-11-15T08:32:45;5.30;;;2.05;;
40074;SDS011;26529;51.530;11.754;2022-11-15T08:35:30;4.82;;;2.70;;
40074;SDS011;26529;51.530;11.754;2022-11-15T08:38:14;4.72;;;2.08;;
40074;SDS011;26529;51.530;11.754;2022-11-15T08:41:00;14.02;;;2.42;;
40074;SDS011;26529;51.530;11.754;2022-11-15T08:43:48;3.50;;;2.13;;
40074;SDS011;26529;51.530;11.754;2022-11-15T08:46:32;8.95;;;2.80;;
40074;SDS011;26529;51.530;11.754;2022-11-15T08:49:16;5.75;;;2.38;;
40074;SDS011;26529;51.530;11.754;2022-11-15T08:52:03;4.35;;;2.25;;
40074;SDS011;26529;51.530;11.754;2022-11-15T08:54:48;4.32;;;2.08;;
40074;SDS011;26529;51.530;11.754;2022-11-15T08:57:32;5.35;;;2.33;;
40074;SDS011;26529;51.530;11.754;2022-11-15T09:00:16;4.20;;;2.50;;
40074;SDS011;26529;51.530;11.754;2022-11-15T09:03:03;5.32;;;2.30;;
40074;SDS011;26529;51.530;11.754;2022-11-15T09:05:48;2.50;;;2.00;;
40074;SDS011;26529;51.530;11.754;2022-11-15T09:08:37;3.28;;;2.15;;
40074;SDS011;26529;51.530;11.754;2022-11-15T09:11:21;3.40;;;1.73;;
40074;SDS011;26529;51.530;11.754;2022-11-15T09:14:07;3.55;;;1.85;;
40074;SDS011;26529;51.530;11.754;2022-11-15T09:16:51;6.80;;;2.22;;
40074;SDS011;26529;51.530;11.754;2022-11-15T09:19:35;5.65;;;2.50;;
40074;SDS011;26529;51.530;11.754;2022-11-15T09:22:21;3.63;;;1.90;;
40074;SDS011;26529;51.530;11.754;2022-11-15T09:25:05;4.18;;;2.38;;
40074;SDS011;26529;51.530;11.754;2022-11-15T09:27:50;3.08;;;2.33;;
40074;SDS011;26529;51.530;11.754;2022-11-15T09:30:33;6.40;;;2.42;;
40074;SDS011;26529;51.530;11.754;2022-11-15T09:33:18;5.75;;;2.65;;
40074;SDS011;26529;51.530;11.754;2022-11-15T09:36:03;6.50;;;2.50;;
40074;SDS011;26529;51.530;11.754;2022-11-15T09:38:49;2.90;;;2.10;;
40074;SDS011;26529;51.530;11.754;2022-11-15T09:41:48;3.58;;;1.98;;
40074;SDS011;26529;51.530;11.754;2022-11-15T09:50:30;2.50;;;1.92;;
40074;SDS011;26529;51.530;11.754;2022-11-15T09:53:01;4.47;;;2.20;;
40074;SDS011;26529;51.530;11.754;2022-11-15T09:55:50;2.72;;;1.83;;
40074;SDS011;26529;51.530;11.754;2022-11-15T10:01:16;3.53;;;2.15;;
40074;SDS011;26529;51.530;11.754;2022-11-15T10:03:47;4.00;;;1.92;;
40074;SDS011;26529;51.530;11.754;2022-11-15T10:06:22;3.47;;;2.05;;
40074;SDS011;26529;51.530;11.754;2022-11-15T10:11:32;3.70;;;2.25;;
40074;SDS011;26529;51.530;11.754;2022-11-15T10:14:01;3.13;;;2.17;;
40074;SDS011;26529;51.530;11.754;2022-11-15T10:16:37;4.00;;;2.05;;
40074;SDS011;26529;51.530;11.754;2022-11-15T10:21:57;4.72;;;2.03;;
40074;SDS011;26529;51.530;11.754;2022-11-15T10:24:26;3.67;;;2.13;;
40074;SDS011;26529;51.530;11.754;2022-11-15T10:26:59;3.05;;;1.83;;
40074;SDS011;26529;51.530;11.754;2022-11-15T10:29:25;5.45;;;1.95;;
40074;SDS011;26529;51.530;11.754;2022-11-15T10:31:51;6.28;;;2.22;;
40074;SDS011;26529;51.530;11.754;2022-11-15T10:34:18;3.00;;;2.20;;
40074;SDS011;26529;51.530;11.754;2022-11-15T10:36:45;3.20;;;1.92;;
40074;SDS011;26529;51.530;11.754;2022-11-15T10:39:18;2.33;;;1.85;;
40074;SDS011;26529;51.530;11.754;2022-11-15T10:41:44;3.22;;;1.75;;
40074;SDS011;26529;51.530;11.754;2022-11-15T10:44:11;2.85;;;1.40;;
40074;SDS011;26529;51.530;11.754;2022-11-15T10:46:38;3.25;;;1.90;;
40074;SDS011;26529;51.530;11.754;2022-11-15T10:49:27;2.72;;;1.80;;
40074;SDS011;26529;51.530;11.754;2022-11-15T10:52:12;2.38;;;2.05;;
40074;SDS011;26529;51.530;11.754;2022-11-15T10:54:55;3.90;;;2.03;;
40074;SDS011;26529;51.530;11.754;2022-11-15T10:57:26;4.97;;;2.53;;
40074;SDS011;26529;51.530;11.754;2022-11-15T10:59:55;4.50;;;2.28;;
40074;SDS011;26529;51.530;11.754;2022-11-15T11:05:04;2.85;;;1.88;;
40074;SDS011;26529;51.530;11.754;2022-11-15T11:07:33;2.08;;;1.77;;
40074;SDS011;26529;51.530;11.754;2022-11-15T11:10:05;11.25;;;2.33;;
40074;SDS011;26529;51.530;11.754;2022-11-15T11:12:43;6.25;;;1.88;;
40074;SDS011;26529;51.530;11.754;2022-11-15T11:15:10;8.00;;;2.08;;
40074;SDS011;26529;51.530;11.754;2022-11-15T11:20:49;2.53;;;2.00;;
40074;SDS011;26529;51.530;11.754;2022-11-15T11:28:46;4.03;;;2.28;;
40074;SDS011;26529;51.530;11.754;2022-11-15T11:36:57;5.15;;;1.95;;
40074;SDS011;26529;51.530;11.754;2022-11-15T11:40:03;4.75;;;1.95;;
40074;SDS011;26529;51.530;11.754;2022-11-15T11:51:16;3.47;;;1.60;;
40074;SDS011;26529;51.530;11.754;2022-11-15T11:53:55;7.47;;;1.90;;
40074;SDS011;26529;51.530;11.754;2022-11-15T11:56:25;3.75;;;1.90;;
40074;SDS011;26529;51.530;11.754;2022-11-15T11:58:54;3.97;;;1.83;;
40074;SDS011;26529;51.530;11.754;2022-11-15T12:01:36;5.30;;;2.00;;
40074;SDS011;26529;51.530;11.754;2022-11-15T12:09:35;2.45;;;1.73;;
40074;SDS011;26529;51.530;11.754;2022-11-15T12:17:16;3.80;;;1.75;;
40074;SDS011;26529;51.530;11.754;2022-11-15T12:19:44;3.42;;;1.70;;
40074;SDS011;26529;51.530;11.754;2022-11-15T12:22:19;4.18;;;1.80;;
40074;SDS011;26529;51.530;11.754;2022-11-15T12:25:02;3.75;;;1.73;;
40074;SDS011;26529;51.530;11.754;2022-11-15T12:27:35;10.73;;;2.33;;
40074;SDS011;26529;51.530;11.754;2022-11-15T12:30:04;2.80;;;1.55;;
40074;SDS011;26529;51.530;11.754;2022-11-15T12:32:49;2.40;;;1.73;;
40074;SDS011;26529;51.530;11.754;2022-11-15T12:35:23;1.98;;;1.73;;
40074;SDS011;26529;51.530;11.754;2022-11-15T12:37:56;1.98;;;1.45;;
40074;SDS011;26529;51.530;11.754;2022-11-15T12:40:29;5.50;;;1.92;;
40074;SDS011;26529;51.530;11.754;2022-11-15T12:43:32;3.00;;;2.00;;
40074;SDS011;26529;51.530;11.754;2022-11-15T12:51:09;4.82;;;1.92;;
40074;SDS011;26529;51.530;11.754;2022-11-15T12:53:34;2.17;;;1.48;;
40074;SDS011;26529;51.530;11.754;2022-11-15T13:06:50;3.00;;;1.88;;
40074;SDS011;26529;51.530;11.754;2022-11-15T13:14:50;5.15;;;1.73;;
40074;SDS011;26529;51.530;11.754;2022-11-15T13:19:56;3.42;;;1.70;;
40074;SDS011;26529;51.530;11.754;2022-11-15T13:31:19;2.55;;;1.30;;
40074;SDS011;26529;51.530;11.754;2022-11-15T13:33:57;1.70;;;1.40;;
40074;SDS011;26529;51.530;11.754;2022-11-15T13:36:29;2.33;;;1.58;;
40074;SDS011;26529;51.530;11.754;2022-11-15T13:39:23;3.72;;;1.98;;
40074;SDS011;26529;51.530;11.754;2022-11-15T13:41:52;2.90;;;1.55;;
40074;SDS011;26529;51.530;11.754;2022-11-15T13:44:22;2.08;;;1.38;;
40074;SDS011;26529;51.530;11.754;2022-11-15T13:46:59;2.00;;;1.27;;
40074;SDS011;26529;51.530;11.754;2022-11-15T13:49:30;2.85;;;1.70;;
40074;SDS011;26529;51.530;11.754;2022-11-15T13:51:57;3.75;;;1.60;;
40074;SDS011;26529;51.530;11.754;2022-11-15T13:54:27;2.50;;;1.60;;
40074;SDS011;26529;51.530;11.754;2022-11-15T13:57:10;2.85;;;1.40;;
40074;SDS011;26529;51.530;11.754;2022-11-15T13:59:57;4.32;;;1.50;;
40074;SDS011;26529;51.530;11.754;2022-11-15T14:02:37;3.72;;;1.40;;
40074;SDS011;26529;51.530;11.754;2022-11-15T14:05:05;1.90;;;1.48;;
40074;SDS011;26529;51.530;11.754;2022-11-15T14:07:51;4.68;;;1.40;;
40074;SDS011;26529;51.530;11.754;2022-11-15T14:10:27;5.00;;;1.38;;
40074;SDS011;26529;51.530;11.754;2022-11-15T14:12:54;4.72;;;1.48;;
40074;SDS011;26529;51.530;11.754;2022-11-15T14:15:33;4.13;;;1.65;;
40074;SDS011;26529;51.530;11.754;2022-11-15T14:18:01;5.32;;;1.75;;
40074;SDS011;26529;51.530;11.754;2022-11-15T14:20:32;3.67;;;1.80;;
40074;SDS011;26529;51.530;11.754;2022-11-15T14:23:00;6.45;;;1.77;;
40074;SDS011;26529;51.530;11.754;2022-11-15T14:25:31;1.85;;;1.40;;
40074;SDS011;26529;51.530;11.754;2022-11-15T14:28:15;3.70;;;1.77;;
40074;SDS011;26529;51.530;11.754;2022-11-15T14:30:41;2.75;;;1.48;;
40074;SDS011;26529;51.530;11.754;2022-11-15T14:33:17;5.10;;;1.92;;
40074;SDS011;26529;51.530;11.754;2022-11-15T14:35:43;3.63;;;1.50;;
40074;SDS011;26529;51.530;11.754;2022-11-15T14:38:09;5.80;;;1.73;;
40074;SDS011;26529;51.530;11.754;2022-11-15T14:40:34;2.65;;;1.73;;
40074;SDS011;26529;51.530;11.754;2022-11-15T14:43:00;3.67;;;1.55;;
40074;SDS011;26529;51.530;11.754;2022-11-15T14:45:26;4.03;;;1.92;;
40074;SDS011;26529;51.530;11.754;2022-11-15T14:47:52;4.05;;;1.67;;
40074;SDS011;26529;51.530;11.754;2022-11-15T14:50:20;4.45;;;1.40;;
40074;SDS011;26529;51.530;11.754;2022-11-15T14:52:47;2.88;;;1.20;;
40074;SDS011;26529;51.530;11.754;2022-11-15T15:00:14;5.22;;;1.95;;
40074;SDS011;26529;51.530;11.754;2022-11-15T15:02:41;3.83;;;1.58;;
40074;SDS011;26529;51.530;11.754;2022-11-15T15:05:19;3.58;;;1.90;;
40074;SDS011;26529;51.530;11.754;2022-11-15T15:07:46;3.50;;;1.83;;
40074;SDS011;26529;51.530;11.754;2022-11-15T15:10:12;5.50;;;2.53;;
40074;SDS011;26529;51.530;11.754;2022-11-15T15:12:38;4.80;;;1.85;;
40074;SDS011;26529;51.530;11.754;2022-11-15T15:15:04;4.80;;;1.85;;
40074;SDS011;26529;51.530;11.754;2022-11-15T15:17:30;3.80;;;1.65;;
40074;SDS011;26529;51.530;11.754;2022-11-15T15:19:56;3.88;;;1.88;;
40074;SDS011;26529;51.530;11.754;2022-11-15T15:22:29;4.18;;;1.80;;
40074;SDS011;26529;51.530;11.754;2022-11-15T15:24:55;4.18;;;1.80;;
40074;SDS011;26529;51.530;11.754;2022-11-15T15:27:21;3.55;;;2.00;;
40074;SDS011;26529;51.530;11.754;2022-11-15T15:29:46;3.33;;;1.67;;
40074;SDS011;26529;51.530;11.754;2022-11-15T15:32:12;4.75;;;2.15;;
40074;SDS011;26529;51.530;11.754;2022-11-15T15:34:38;3.28;;;1.50;;
40074;SDS011;26529;51.530;11.754;2022-11-15T15:39:58;4.05;;;1.80;;
40074;SDS011;26529;51.530;11.754;2022-11-15T15:42:24;5.75;;;2.17;;
40074;SDS011;26529;51.530;11.754;2022-11-15T15:44:50;4.60;;;2.13;;
40074;SDS011;26529;51.530;11.754;2022-11-15T15:47:17;3.95;;;1.95;;
40074;SDS011;26529;51.530;11.754;2022-11-15T15:49:47;3.95;;;2.60;;
40074;SDS011;26529;51.530;11.754;2022-11-15T15:52:13;4.85;;;3.75;;
40074;SDS011;26529;51.530;11.754;2022-11-15T15:54:39;6.90;;;2.40;;
40074;SDS011;26529;51.530;11.754;2022-11-15T15:57:05;4.00;;;2.22;;
40074;SDS011;26529;51.530;11.754;2022-11-15T15:59:31;3.42;;;2.50;;
40074;SDS011;26529;51.530;11.754;2022-11-15T16:01:57;4.93;;;2.85;;
40074;SDS011;26529;51.530;11.754;2022-11-15T16:04:23;6.35;;;2.85;;
40074;SDS011;26529;51.530;11.754;2022-11-15T16:06:49;4.60;;;2.15;;
40074;SDS011;26529;51.530;11.754;2022-11-15T16:09:18;5.10;;;2.53;;
40074;SDS011;26529;51.530;11.754;2022-11-15T16:12:04;2.20;;;1.73;;
40074;SDS011;26529;51.530;11.754;2022-11-15T16:14:31;2.90;;;2.22;;
40074;SDS011;26529;51.530;11.754;2022-11-15T16:16:56;4.07;;;2.53;;
40074;SDS011;26529;51.530;11.754;2022-11-15T16:19:22;3.47;;;2.42;;
40074;SDS011;26529;51.530;11.754;2022-11-15T16:21:48;2.67;;;2.10;;
40074;SDS011;26529;51.530;11.754;2022-11-15T16:24:13;2.45;;;2.10;;
40074;SDS011;26529;51.530;11.754;2022-11-15T16:26:39;3.58;;;2.65;;
40074;SDS011;26529;51.530;11.754;2022-11-15T16:29:05;4.65;;;2.50;;
40074;SDS011;26529;51.530;11.754;2022-11-15T16:31:32;2.75;;;1.98;;
40074;SDS011;26529;51.530;11.754;2022-11-15T16:33:57;5.05;;;2.17;;
40074;SDS011;26529;51.530;11.754;2022-11-15T16:36:23;2.53;;;2.25;;
40074;SDS011;26529;51.530;11.754;2022-11-15T16:38:50;7.57;;;3.15;;
40074;SDS011;26529;51.530;11.754;2022-11-15T16:41:17;4.47;;;2.47;;
40074;SDS011;26529;51.530;11.754;2022-11-15T16:43:46;6.40;;;2.17;;
40074;SDS011;26529;51.530;11.754;2022-11-15T16:46:14;5.75;;;2.58;;
40074;SDS011;26529;51.530;11.754;2022-11-15T16:48:45;5.53;;;2.28;;
40074;SDS011;26529;51.530;11.754;2022-11-15T16:51:11;9.80;;;2.88;;
40074;SDS011;26529;51.530;11.754;2022-11-15T16:53:37;7.53;;;2.38;;
40074;SDS011;26529;51.530;11.754;2022-11-15T16:56:03;4.68;;;2.05;;
40074;SDS011;26529;51.530;11.754;2022-11-15T16:58:28;5.65;;;2.63;;
40074;SDS011;26529;51.530;11.754;2022-11-15T17:00:54;7.50;;;2.55;;
40074;SDS011;26529;51.530;11.754;2022-11-15T17:03:21;5.78;;;2.83;;
40074;SDS011;26529;51.530;11.754;2022-11-15T17:05:48;5.47;;;2.75;;
40074;SDS011;26529;51.530;11.754;2022-11-15T17:08:14;10.43;;;2.85;;
40074;SDS011;26529;51.530;11.754;2022-11-15T17:10:40;7.32;;;2.50;;
40074;SDS011;26529;51.530;11.754;2022-11-15T17:13:07;6.03;;;2.60;;
40074;SDS011;26529;51.530;11.754;2022-11-15T17:15:38;8.60;;;2.90;;
40074;SDS011;26529;51.530;11.754;2022-11-15T17:18:04;5.03;;;2.30;;
40074;SDS011;26529;51.530;11.754;2022-11-15T17:20:30;10.15;;;3.15;;
40074;SDS011;26529;51.530;11.754;2022-11-15T17:22:56;9.40;;;2.78;;
40074;SDS011;26529;51.530;11.754;2022-11-15T17:25:22;6.75;;;2.67;;
40074;SDS011;26529;51.530;11.754;2022-11-15T17:27:47;4.65;;;2.50;;
40074;SDS011;26529;51.530;11.754;2022-11-15T17:30:13;14.75;;;3.17;;
40074;SDS011;26529;51.530;11.754;2022-11-15T17:32:39;9.15;;;2.50;;
40074;SDS011;26529;51.530;11.754;2022-11-15T17:35:06;10.35;;;2.65;;
40074;SDS011;26529;51.530;11.754;2022-11-15T17:37:33;9.48;;;2.90;;
40074;SDS011;26529;51.530;11.754;2022-11-15T17:39:59;9.35;;;2.35;;
40074;SDS011;26529;51.530;11.754;2022-11-15T17:42:25;8.05;;;2.80;;
40074;SDS011;26529;51.530;11.754;2022-11-15T17:44:51;9.30;;;3.50;;
40074;SDS011;26529;51.530;11.754;2022-11-15T17:47:16;8.27;;;2.67;;
40074;SDS011;26529;51.530;11.754;2022-11-15T17:49:42;6.40;;;2.88;;
40074;SDS011;26529;51.530;11.754;2022-11-15T17:52:07;6.40;;;2.72;;
40074;SDS011;26529;51.530;11.754;2022-11-15T17:54:33;6.20;;;2.35;;
40074;SDS011;26529;51.530;11.754;2022-11-15T17:56:59;6.20;;;2.63;;
40074;SDS011;26529;51.530;11.754;2022-11-15T17:59:24;7.28;;;2.42;;